Time;durP1;ratioP1;P1;durP2;ratioP2;P2;SDS_P1;SDS_P2;PMS_P1;PMS_P2;Temp;Humidity;BMP_temperature;BMP_pressure;BME280_temperature;BME280_humidity;BME280_pressure;Samples;Min_cycle;Max_cycle;Signal;HPM_P1;HPM_P2
2022/07/30 00:00:09;;;;;;;;;;;28.80;93.10;;;;;;5124187;28;19904;-53
2022/07/30 00:02:35;;;;;;;;;;;28.80;93.10;;;;;;5124137;28;20211;-53
2022/07/30 00:05:01;;;;;;;;;;;28.80;93.10;;;;;;5124287;28;19970;-54
2022/07/30 00:07:27;;;;;;;;;;;28.80;93.10;;;;;;5124315;28;19918;-54
2022/07/30 00:09:54;;;;;;;;;;;28.70;93.10;;;;;;5125330;28;19943;-53
2022/07/30 00:12:20;;;;;;;;;;;28.80;93.20;;;;;;5125810;28;20196;-52
2022/07/30 00:14:46;;;;;;;;;;;28.70;93.10;;;;;;5125633;28;19911;-53
2022/07/30 00:17:12;;;;;;;;;;;28.70;92.70;;;;;;5125566;28;19978;-53
2022/07/30 00:19:38;;;;;;;;;;;28.80;92.70;;;;;;5125425;28;19923;-53
2022/07/30 00:22:04;;;;;;;;;;;28.80;92.60;;;;;;5125590;28;20237;-54
2022/07/30 00:24:30;;;;;;;;;;;28.70;92.60;;;;;;5125455;28;19904;-54
2022/07/30 00:26:56;;;;;;;;;;;28.70;92.50;;;;;;5125468;28;19953;-54
2022/07/30 00:29:23;;;;;;;;;;;28.70;92.50;;;;;;5125330;28;19907;-56
2022/07/30 00:31:49;;;;;;;;;;;28.70;92.50;;;;;;5125492;28;19930;-54
2022/07/30 00:34:15;;;;;;;;;;;28.70;92.60;;;;;;5125357;28;19904;-53
2022/07/30 00:36:41;;;;;;;;;;;28.70;92.60;;;;;;5125408;28;19919;-58
2022/07/30 00:39:08;;;;;;;;;;;28.70;92.60;;;;;;5125120;28;19904;-55
2022/07/30 00:41:36;;;;;;;;;;;28.70;92.50;;;;;;5125211;28;20261;-53
2022/07/30 00:44:03;;;;;;;;;;;28.60;92.50;;;;;;5125194;28;19903;-53
2022/07/30 00:46:29;;;;;;;;;;;28.60;92.50;;;;;;5124946;28;19990;-54
2022/07/30 00:48:55;;;;;;;;;;;28.60;92.50;;;;;;5125038;28;19943;-53
2022/07/30 00:51:21;;;;;;;;;;;28.60;92.50;;;;;;5124939;28;19945;-55
2022/07/30 00:53:47;;;;;;;;;;;28.60;92.50;;;;;;5124966;28;19969;-52
2022/07/30 00:56:13;;;;;;;;;;;28.50;92.40;;;;;;5124928;28;20250;-55
2022/07/30 00:58:39;;;;;;;;;;;28.50;92.40;;;;;;5124911;28;19970;-53
2022/07/30 01:01:05;;;;;;;;;;;28.60;92.40;;;;;;5124442;28;20159;-55
2022/07/30 01:03:32;;;;;;;;;;;28.50;92.40;;;;;;5124878;28;19911;-52
2022/07/30 01:05:58;;;;;;;;;;;28.50;92.40;;;;;;5124803;28;19966;-57
2022/07/30 01:08:24;;;;;;;;;;;28.50;92.40;;;;;;5125157;28;19947;-53
2022/07/30 01:10:50;;;;;;;;;;;28.50;92.40;;;;;;5124854;28;19903;-54
2022/07/30 01:13:16;;;;;;;;;;;28.50;92.40;;;;;;5125423;28;20136;-52
2022/07/30 01:15:42;;;;;;;;;;;28.40;92.30;;;;;;5106637;28;19904;-53
2022/07/30 01:18:10;;;;;;;;;;;28.40;92.30;;;;;;5125186;28;19920;-54
2022/07/30 01:20:44;;;;;;;;;;;28.40;92.30;;;;;;5123738;28;20410;-55
2022/07/30 01:23:16;;;;;;;;;;;28.40;92.30;;;;;;5124941;28;19915;-54
2022/07/30 01:26:01;;;;;;;;;;;28.40;92.10;;;;;;5124847;28;19911;-57
2022/07/30 01:28:34;;;;;;;;;;;28.40;92.10;;;;;;5124512;28;19939;-54
2022/07/30 01:31:02;;;;;;;;;;;28.30;92.00;;;;;;5124673;28;19911;-54
2022/07/30 01:33:29;;;;;;;;;;;28.30;91.80;;;;;;5125206;28;19903;-53
2022/07/30 01:35:56;;;;;;;;;;;28.30;91.70;;;;;;5124595;28;19919;-55
2022/07/30 01:38:23;;;;;;;;;;;28.30;91.60;;;;;;5125114;28;19910;-54
2022/07/30 01:40:54;;;;;;;;;;;28.30;91.50;;;;;;5124668;28;19912;-56
2022/07/30 01:43:22;;;;;;;;;;;28.30;91.50;;;;;;5106517;28;19904;-57
2022/07/30 01:45:49;;;;;;;;;;;28.20;91.20;;;;;;5124477;28;19912;-54
2022/07/30 01:48:16;;;;;;;;;;;28.20;91.30;;;;;;5124968;28;19910;-55
2022/07/30 01:50:44;;;;;;;;;;;28.20;91.20;;;;;;5124291;28;20193;-57
2022/07/30 01:53:13;;;;;;;;;;;28.20;91.10;;;;;;5124890;28;19983;-52
2022/07/30 01:55:41;;;;;;;;;;;28.20;91.40;;;;;;5124428;28;19919;-58
2022/07/30 01:58:08;;;;;;;;;;;28.20;91.30;;;;;;5124786;28;19933;-55
2022/07/30 02:00:37;;;;;;;;;;;28.20;91.20;;;;;;5124459;28;20054;-55
2022/07/30 02:03:04;;;;;;;;;;;28.20;91.10;;;;;;5124681;28;19911;-57
2022/07/30 02:05:32;;;;;;;;;;;28.10;90.90;;;;;;5124372;28;19920;-57
2022/07/30 02:08:00;;;;;;;;;;;28.20;90.90;;;;;;5124718;28;19976;-58
2022/07/30 02:10:29;;;;;;;;;;;28.20;90.90;;;;;;5123946;28;19915;-54
2022/07/30 02:12:56;;;;;;;;;;;28.10;90.90;;;;;;5127108;28;19904;-55
2022/07/30 02:15:22;;;;;;;;;;;28.10;91.00;;;;;;5127881;28;19916;-55
2022/07/30 02:18:03;;;;;;;;;;;28.10;90.90;;;;;;5128186;28;19971;-55
2022/07/30 02:20:30;;;;;;;;;;;28.10;90.90;;;;;;5127922;28;19919;-54
2022/07/30 02:22:59;;;;;;;;;;;28.00;90.90;;;;;;5128431;28;19915;-53
2022/07/30 02:25:26;;;;;;;;;;;28.00;91.00;;;;;;5127781;28;19908;-53
2022/07/30 02:27:55;;;;;;;;;;;28.00;91.00;;;;;;5128250;28;20180;-53
2022/07/30 02:30:25;;;;;;;;;;;27.90;91.10;;;;;;5127658;28;19911;-53
2022/07/30 02:32:53;;;;;;;;;;;27.90;91.10;;;;;;5128130;28;19919;-57
2022/07/30 02:35:20;;;;;;;;;;;27.90;91.00;;;;;;5109536;28;19978;-57
2022/07/30 02:37:47;;;;;;;;;;;27.90;91.00;;;;;;5128003;28;20242;-55
2022/07/30 02:40:14;;;;;;;;;;;27.90;91.00;;;;;;5127704;28;20115;-57
2022/07/30 02:42:42;;;;;;;;;;;27.90;91.10;;;;;;5127915;28;19938;-53
2022/07/30 02:45:09;;;;;;;;;;;27.80;91.00;;;;;;5127430;28;19914;-53
2022/07/30 02:47:36;;;;;;;;;;;27.80;91.10;;;;;;5127389;28;19959;-54
2022/07/30 02:50:02;;;;;;;;;;;27.80;91.20;;;;;;5127419;28;19912;-55
2022/07/30 02:52:29;;;;;;;;;;;27.80;91.30;;;;;;5127527;28;19908;-55
2022/07/30 02:54:56;;;;;;;;;;;27.80;91.30;;;;;;5127324;28;20212;-56
2022/07/30 02:57:22;;;;;;;;;;;27.80;91.40;;;;;;5127408;28;20138;-56
2022/07/30 02:59:49;;;;;;;;;;;27.70;91.40;;;;;;5108809;28;20188;-53
2022/07/30 03:02:16;;;;;;;;;;;27.70;91.50;;;;;;5127263;28;20184;-52
2022/07/30 03:04:43;;;;;;;;;;;27.70;91.50;;;;;;5127242;28;19950;-55
2022/07/30 03:07:09;;;;;;;;;;;27.70;91.50;;;;;;5127190;28;19939;-55
2022/07/30 03:09:38;;;;;;;;;;;27.70;91.60;;;;;;5126830;28;19916;-54
2022/07/30 03:12:04;;;;;;;;;;;27.70;91.60;;;;;;5127232;28;19907;-54
2022/07/30 03:14:31;;;;;;;;;;;27.70;91.70;;;;;;5126916;28;19908;-54
2022/07/30 03:17:01;;;;;;;;;;;27.70;91.60;;;;;;5123767;28;20009;-55
2022/07/30 03:19:29;;;;;;;;;;;27.60;91.70;;;;;;5126476;28;19920;-58
2022/07/30 03:21:55;;;;;;;;;;;27.60;91.80;;;;;;5108661;28;19915;-56
2022/07/30 03:24:23;;;;;;;;;;;27.60;91.80;;;;;;5126561;28;19965;-57
2022/07/30 03:26:52;;;;;;;;;;;27.60;91.70;;;;;;5126966;28;20183;-57
2022/07/30 03:29:19;;;;;;;;;;;27.60;91.90;;;;;;5126735;28;19912;-56
2022/07/30 03:31:45;;;;;;;;;;;27.60;92.10;;;;;;5126563;28;19915;-55
2022/07/30 03:34:12;;;;;;;;;;;27.60;92.20;;;;;;5126768;28;19962;-56
2022/07/30 03:36:39;;;;;;;;;;;27.60;92.10;;;;;;5126311;28;20188;-56
2022/07/30 03:39:06;;;;;;;;;;;27.60;92.10;;;;;;5126381;28;19945;-56
2022/07/30 03:41:32;;;;;;;;;;;27.60;92.10;;;;;;5126480;28;19911;-58
2022/07/30 03:43:59;;;;;;;;;;;27.60;92.20;;;;;;5126330;28;19908;-58
2022/07/30 03:46:26;;;;;;;;;;;27.50;92.20;;;;;;5126279;28;19937;-59
2022/07/30 03:48:52;;;;;;;;;;;27.50;92.30;;;;;;5126403;28;19934;-55
2022/07/30 03:51:19;;;;;;;;;;;27.50;92.30;;;;;;5126388;28;20207;-56
2022/07/30 03:53:45;;;;;;;;;;;27.40;92.30;;;;;;5126070;28;19914;-56
2022/07/30 03:56:12;;;;;;;;;;;27.40;92.40;;;;;;5126320;28;19910;-55
2022/07/30 03:58:39;;;;;;;;;;;27.40;92.40;;;;;;5126171;28;19935;-53
2022/07/30 04:01:05;;;;;;;;;;;27.40;92.40;;;;;;5126014;28;19908;-54
2022/07/30 04:03:32;;;;;;;;;;;27.40;92.50;;;;;;5126546;28;19939;-54
2022/07/30 04:05:58;;;;;;;;;;;27.30;92.50;;;;;;5126054;28;19912;-54
2022/07/30 04:08:25;;;;;;;;;;;27.40;92.50;;;;;;5125862;28;19919;-54
2022/07/30 04:10:51;;;;;;;;;;;27.30;92.50;;;;;;5125954;28;19912;-55
2022/07/30 04:13:17;;;;;;;;;;;27.30;92.50;;;;;;5126331;28;20184;-54
2022/07/30 04:15:48;;;;;;;;;;;27.30;92.50;;;;;;5125781;28;19908;-55
2022/07/30 04:18:16;;;;;;;;;;;27.30;92.50;;;;;;5126225;28;19945;-56
2022/07/30 04:20:45;;;;;;;;;;;27.30;92.50;;;;;;5125748;28;19959;-54
2022/07/30 04:23:11;;;;;;;;;;;27.30;92.50;;;;;;5125981;28;19910;-54
2022/07/30 04:25:38;;;;;;;;;;;27.30;92.60;;;;;;5123400;28;19934;-57
2022/07/30 04:28:05;;;;;;;;;;;27.30;92.60;;;;;;5107469;28;19908;-55
2022/07/30 04:30:33;;;;;;;;;;;27.20;92.60;;;;;;5105057;28;20161;-54
2022/07/30 04:33:00;;;;;;;;;;;27.20;92.60;;;;;;5105484;28;19908;-54
2022/07/30 04:35:29;;;;;;;;;;;27.30;92.70;;;;;;5104570;28;19954;-53
2022/07/30 04:37:56;;;;;;;;;;;27.20;92.70;;;;;;5105300;28;19908;-55
2022/07/30 04:40:22;;;;;;;;;;;27.20;92.70;;;;;;5105059;28;19939;-58
2022/07/30 04:42:48;;;;;;;;;;;27.20;92.80;;;;;;5105364;28;20088;-54
2022/07/30 04:45:14;;;;;;;;;;;27.20;92.80;;;;;;5104807;28;19908;-58
2022/07/30 04:47:40;;;;;;;;;;;27.20;92.80;;;;;;5105293;28;20095;-57
2022/07/30 04:50:08;;;;;;;;;;;27.10;92.80;;;;;;5104669;28;19919;-54
2022/07/30 04:52:35;;;;;;;;;;;27.20;92.80;;;;;;5119526;28;19975;-55
2022/07/30 04:55:02;;;;;;;;;;;27.10;92.80;;;;;;5104842;28;19981;-58
2022/07/30 04:57:30;;;;;;;;;;;27.10;92.80;;;;;;5104984;28;19915;-57
2022/07/30 04:59:57;;;;;;;;;;;27.10;92.80;;;;;;5104569;28;19916;-55
2022/07/30 05:02:24;;;;;;;;;;;27.10;92.80;;;;;;5105078;28;19908;-55
2022/07/30 05:04:51;;;;;;;;;;;27.10;92.70;;;;;;5104629;28;19908;-56
2022/07/30 05:07:18;;;;;;;;;;;27.10;92.70;;;;;;5104642;28;19987;-58
2022/07/30 05:09:44;;;;;;;;;;;27.10;92.70;;;;;;5104684;28;19912;-57
2022/07/30 05:12:10;;;;;;;;;;;27.00;92.70;;;;;;5104655;28;19908;-58
2022/07/30 05:14:36;;;;;;;;;;;27.00;92.60;;;;;;5104380;28;19914;-54
2022/07/30 05:17:02;;;;;;;;;;;27.00;92.60;;;;;;5104408;28;20102;-55
2022/07/30 05:19:29;;;;;;;;;;;27.00;92.60;;;;;;5094015;28;19921;-58
2022/07/30 05:21:55;;;;;;;;;;;27.00;92.60;;;;;;5084265;28;20157;-55
2022/07/30 05:24:21;;;;;;;;;;;27.00;92.60;;;;;;5084046;28;19940;-57
2022/07/30 05:26:47;;;;;;;;;;;27.00;92.60;;;;;;5084171;28;20189;-58
2022/07/30 05:29:13;;;;;;;;;;;26.90;92.60;;;;;;5084040;28;19913;-56
2022/07/30 05:31:39;;;;;;;;;;;26.90;92.60;;;;;;5083949;28;19915;-59
2022/07/30 05:34:06;;;;;;;;;;;26.90;92.60;;;;;;5084088;28;20234;-55
2022/07/30 05:36:35;;;;;;;;;;;26.90;92.70;;;;;;5084150;28;19904;-56
2022/07/30 05:39:01;;;;;;;;;;;26.90;92.70;;;;;;5083902;28;19908;-55
2022/07/30 05:41:28;;;;;;;;;;;26.90;92.70;;;;;;5084231;28;19963;-57
2022/07/30 05:43:54;;;;;;;;;;;26.90;92.70;;;;;;5083733;28;19975;-54
2022/07/30 05:46:20;;;;;;;;;;;26.90;92.80;;;;;;5085726;28;19904;-57
2022/07/30 05:48:46;;;;;;;;;;;26.90;92.80;;;;;;5087796;28;19913;-55
2022/07/30 05:51:12;;;;;;;;;;;26.90;92.80;;;;;;5087911;28;19904;-57
2022/07/30 05:53:38;;;;;;;;;;;26.90;92.80;;;;;;5087714;28;19912;-55
2022/07/30 05:56:05;;;;;;;;;;;26.90;92.80;;;;;;5087845;28;19905;-58
2022/07/30 05:58:31;;;;;;;;;;;26.90;92.80;;;;;;5088236;28;19909;-55
2022/07/30 06:00:57;;;;;;;;;;;26.90;92.90;;;;;;5087608;28;19979;-57
2022/07/30 06:03:23;;;;;;;;;;;26.90;92.90;;;;;;5087914;28;20171;-56
2022/07/30 06:05:49;;;;;;;;;;;26.90;92.90;;;;;;5087490;28;19909;-56
2022/07/30 06:08:15;;;;;;;;;;;26.90;92.90;;;;;;5087780;28;19915;-54
2022/07/30 06:10:41;;;;;;;;;;;26.90;92.90;;;;;;5087427;28;19916;-54
2022/07/30 06:13:08;;;;;;;;;;;26.90;92.90;;;;;;5087841;28;19915;-58
2022/07/30 06:15:34;;;;;;;;;;;26.90;93.00;;;;;;5087488;28;20218;-54
2022/07/30 06:18:00;;;;;;;;;;;26.90;93.00;;;;;;5087608;28;19946;-58
2022/07/30 06:20:26;;;;;;;;;;;26.90;93.00;;;;;;5105465;28;19927;-58
2022/07/30 06:22:52;;;;;;;;;;;26.90;93.10;;;;;;5107907;28;19908;-62
2022/07/30 06:25:19;;;;;;;;;;;26.80;93.10;;;;;;5107403;28;19912;-54
2022/07/30 06:27:45;;;;;;;;;;;26.80;93.20;;;;;;5107847;28;20163;-55
2022/07/30 06:30:12;;;;;;;;;;;26.80;93.20;;;;;;5107339;28;20004;-57
2022/07/30 06:32:38;;;;;;;;;;;26.80;93.30;;;;;;5107472;28;19904;-55
2022/07/30 06:35:04;;;;;;;;;;;26.70;93.30;;;;;;5107323;28;20211;-55
2022/07/30 06:37:30;;;;;;;;;;;26.70;93.30;;;;;;5107485;28;20080;-57
2022/07/30 06:39:56;;;;;;;;;;;26.80;93.40;;;;;;5107082;28;19978;-57
2022/07/30 06:42:23;;;;;;;;;;;26.80;93.40;;;;;;5107352;28;19908;-56
2022/07/30 06:44:49;;;;;;;;;;;26.80;93.30;;;;;;5107233;28;19994;-56
2022/07/30 06:47:18;;;;;;;;;;;26.80;93.30;;;;;;5107206;28;19908;-57
2022/07/30 06:49:45;;;;;;;;;;;26.90;93.20;;;;;;5107128;28;19959;-56
2022/07/30 06:52:11;;;;;;;;;;;26.90;93.20;;;;;;5107251;28;19904;-56
2022/07/30 06:54:37;;;;;;;;;;;26.90;93.20;;;;;;5106765;28;19919;-57
2022/07/30 06:57:03;;;;;;;;;;;26.90;93.20;;;;;;5106819;28;20223;-55
2022/07/30 06:59:29;;;;;;;;;;;26.90;93.10;;;;;;5106820;28;19916;-57
2022/07/30 07:01:56;;;;;;;;;;;26.90;93.10;;;;;;5106827;28;19971;-54
2022/07/30 07:04:22;;;;;;;;;;;26.90;93.10;;;;;;5107179;28;19922;-56
2022/07/30 07:06:48;;;;;;;;;;;26.90;93.10;;;;;;5106997;28;19931;-55
2022/07/30 07:09:14;;;;;;;;;;;26.90;93.10;;;;;;5106505;28;20111;-56
2022/07/30 07:11:40;;;;;;;;;;;26.90;93.10;;;;;;5106597;28;19911;-57
2022/07/30 07:14:06;;;;;;;;;;;26.90;93.00;;;;;;5106699;28;19912;-56
2022/07/30 07:16:32;;;;;;;;;;;26.90;93.00;;;;;;5106670;28;19904;-54
2022/07/30 07:18:58;;;;;;;;;;;26.90;93.10;;;;;;5106305;28;20208;-55
2022/07/30 07:21:24;;;;;;;;;;;26.90;93.10;;;;;;5106433;28;19904;-58
2022/07/30 07:23:51;;;;;;;;;;;26.90;93.00;;;;;;5106494;28;19922;-55
2022/07/30 07:26:17;;;;;;;;;;;26.90;93.10;;;;;;5108513;28;19904;-57
2022/07/30 07:28:43;;;;;;;;;;;26.90;93.10;;;;;;5126318;28;19916;-60
2022/07/30 07:31:10;;;;;;;;;;;26.90;93.10;;;;;;5126420;28;19903;-55
2022/07/30 07:33:37;;;;;;;;;;;26.80;93.10;;;;;;5127086;28;19907;-55
2022/07/30 07:36:03;;;;;;;;;;;26.80;93.10;;;;;;5126675;28;20100;-54
2022/07/30 07:38:29;;;;;;;;;;;26.70;93.20;;;;;;5126972;28;19915;-55
2022/07/30 07:40:55;;;;;;;;;;;26.70;93.30;;;;;;5126329;28;19942;-55
2022/07/30 07:43:23;;;;;;;;;;;26.60;93.30;;;;;;5126940;28;20188;-58
2022/07/30 07:45:50;;;;;;;;;;;26.60;93.40;;;;;;5126419;28;19912;-57
2022/07/30 07:48:16;;;;;;;;;;;26.60;93.40;;;;;;5126189;28;19915;-57
2022/07/30 07:50:43;;;;;;;;;;;26.60;93.50;;;;;;5126462;28;19954;-55
2022/07/30 07:53:09;;;;;;;;;;;26.60;93.50;;;;;;5126787;28;19908;-55
2022/07/30 07:55:35;;;;;;;;;;;26.50;93.50;;;;;;5126071;28;19911;-55
2022/07/30 07:58:01;;;;;;;;;;;26.60;93.60;;;;;;5126439;28;19908;-59
2022/07/30 08:00:28;;;;;;;;;;;26.50;93.60;;;;;;5125918;28;19908;-56
2022/07/30 08:02:55;;;;;;;;;;;26.50;93.60;;;;;;5126367;28;19935;-54
2022/07/30 08:05:21;;;;;;;;;;;26.50;93.70;;;;;;5125817;28;19908;-55
2022/07/30 08:07:47;;;;;;;;;;;26.50;93.70;;;;;;5126269;28;19943;-59
2022/07/30 08:10:14;;;;;;;;;;;26.50;93.70;;;;;;5124770;28;19912;-54
2022/07/30 08:12:41;;;;;;;;;;;26.40;93.80;;;;;;5126004;28;19915;-53
2022/07/30 08:15:11;;;;;;;;;;;26.40;94.00;;;;;;5125783;28;19930;-54
2022/07/30 08:17:40;;;;;;;;;;;26.50;93.80;;;;;;5126072;28;19908;-54
2022/07/30 08:20:07;;;;;;;;;;;26.40;93.80;;;;;;5125445;28;19919;-54
2022/07/30 08:22:33;;;;;;;;;;;26.40;93.80;;;;;;5126007;28;19915;-56
2022/07/30 08:24:59;;;;;;;;;;;26.40;93.80;;;;;;5125720;28;19907;-57
2022/07/30 08:27:25;;;;;;;;;;;26.40;93.90;;;;;;5125612;28;20096;-55
2022/07/30 08:29:51;;;;;;;;;;;26.40;93.90;;;;;;5125361;28;20107;-54
2022/07/30 08:32:17;;;;;;;;;;;26.40;93.90;;;;;;5125716;28;19979;-60
2022/07/30 08:34:44;;;;;;;;;;;26.40;93.90;;;;;;5125355;28;19915;-57
2022/07/30 08:37:10;;;;;;;;;;;26.30;93.90;;;;;;5125619;28;20210;-54
2022/07/30 08:39:36;;;;;;;;;;;26.40;93.90;;;;;;5125285;28;19914;-56
2022/07/30 08:42:03;;;;;;;;;;;26.40;93.90;;;;;;5125221;28;19908;-62
2022/07/30 08:44:29;;;;;;;;;;;26.30;93.90;;;;;;5125256;28;19939;-56
2022/07/30 08:46:56;;;;;;;;;;;26.40;93.90;;;;;;5125186;28;19939;-54
2022/07/30 08:49:22;;;;;;;;;;;26.40;93.90;;;;;;5125278;28;20188;-56
2022/07/30 08:51:49;;;;;;;;;;;26.40;93.90;;;;;;5125219;28;19931;-59
2022/07/30 08:54:15;;;;;;;;;;;26.30;93.90;;;;;;5125159;28;20013;-55
2022/07/30 08:56:41;;;;;;;;;;;26.30;93.90;;;;;;5125336;28;19914;-57
2022/07/30 08:59:08;;;;;;;;;;;26.30;93.90;;;;;;5125159;28;19916;-57
2022/07/30 09:01:34;;;;;;;;;;;26.30;93.90;;;;;;5124964;28;19915;-54
2022/07/30 09:04:00;;;;;;;;;;;26.40;93.90;;;;;;5125031;28;19915;-56
2022/07/30 09:06:26;;;;;;;;;;;26.40;93.80;;;;;;5124785;28;19904;-54
2022/07/30 09:08:53;;;;;;;;;;;26.40;93.70;;;;;;5124816;28;19949;-55
2022/07/30 09:11:19;;;;;;;;;;;26.40;93.70;;;;;;5124709;28;19903;-55
2022/07/30 09:13:45;;;;;;;;;;;26.40;93.70;;;;;;5124769;28;19914;-55
2022/07/30 09:16:25;;;;;;;;;;;26.40;93.70;;;;;;5124947;28;20160;-58
2022/07/30 09:18:52;;;;;;;;;;;26.30;93.70;;;;;;5124592;28;20196;-55
2022/07/30 09:21:19;;;;;;;;;;;26.30;93.80;;;;;;5124561;28;19939;-54
2022/07/30 09:24:01;;;;;;;;;;;26.30;93.80;;;;;;5124863;28;19908;-57
2022/07/30 09:26:34;;;;;;;;;;;26.30;93.80;;;;;;5124912;28;19973;-56
2022/07/30 09:29:17;;;;;;;;;;;26.30;93.90;;;;;;5124766;28;19983;-54
2022/07/30 09:31:53;;;;;;;;;;;26.30;93.80;;;;;;5124534;28;19908;-56
2022/07/30 09:34:30;;;;;;;;;;;26.30;93.80;;;;;;5124696;28;19908;-54
2022/07/30 09:36:56;;;;;;;;;;;26.30;93.80;;;;;;5124567;28;19915;-54
2022/07/30 09:39:28;;;;;;;;;;;26.30;93.80;;;;;;5124578;28;19908;-55
2022/07/30 09:41:55;;;;;;;;;;;26.30;93.80;;;;;;5124597;28;19908;-56
2022/07/30 09:44:25;;;;;;;;;;;26.20;93.90;;;;;;5124480;28;19958;-54
2022/07/30 09:46:52;;;;;;;;;;;26.20;93.90;;;;;;5124601;28;19914;-55
2022/07/30 09:49:25;;;;;;;;;;;26.20;93.90;;;;;;5124460;28;19982;-56
2022/07/30 09:51:52;;;;;;;;;;;26.20;93.90;;;;;;5124538;28;19915;-54
2022/07/30 09:54:18;;;;;;;;;;;26.20;93.90;;;;;;5124475;28;19907;-55
2022/07/30 09:56:46;;;;;;;;;;;26.10;93.80;;;;;;5124207;28;20214;-57
2022/07/30 09:59:31;;;;;;;;;;;26.10;93.80;;;;;;5124581;28;19908;-54
2022/07/30 10:01:57;;;;;;;;;;;26.10;93.80;;;;;;5124357;28;20256;-55
2022/07/30 10:04:24;;;;;;;;;;;26.10;94.00;;;;;;5124467;28;19915;-54
2022/07/30 10:06:50;;;;;;;;;;;26.10;93.80;;;;;;5124375;28;20104;-54
2022/07/30 10:09:29;;;;;;;;;;;26.10;93.80;;;;;;5124016;28;19912;-59
2022/07/30 10:11:56;;;;;;;;;;;26.10;93.80;;;;;;5124371;28;19907;-54
2022/07/30 10:14:23;;;;;;;;;;;26.10;93.80;;;;;;5124430;28;19946;-54
2022/07/30 10:16:50;;;;;;;;;;;26.10;93.80;;;;;;5124264;28;20099;-54
2022/07/30 10:19:17;;;;;;;;;;;26.10;93.80;;;;;;5124114;28;19949;-54
2022/07/30 10:21:44;;;;;;;;;;;26.10;93.80;;;;;;5124095;28;19914;-56
2022/07/30 10:24:11;;;;;;;;;;;26.00;93.80;;;;;;5124189;28;19908;-54
2022/07/30 10:26:37;;;;;;;;;;;26.00;93.80;;;;;;5124177;28;19915;-61
2022/07/30 10:29:04;;;;;;;;;;;26.00;93.80;;;;;;5124053;28;19911;-54
2022/07/30 10:31:30;;;;;;;;;;;26.00;93.80;;;;;;5123924;28;20100;-55
2022/07/30 10:33:56;;;;;;;;;;;26.00;93.80;;;;;;5126638;28;19908;-54
2022/07/30 10:36:23;;;;;;;;;;;26.00;93.80;;;;;;5127744;28;19904;-55
2022/07/30 10:38:49;;;;;;;;;;;26.00;93.80;;;;;;5127622;28;19908;-54
2022/07/30 10:41:15;;;;;;;;;;;26.00;93.70;;;;;;5127668;28;20191;-55
2022/07/30 10:43:41;;;;;;;;;;;26.00;93.70;;;;;;5127566;28;19915;-57
2022/07/30 10:46:20;;;;;;;;;;;26.10;93.70;;;;;;5127667;28;19903;-57
2022/07/30 10:48:46;;;;;;;;;;;26.10;93.60;;;;;;5127670;28;19916;-55
2022/07/30 10:51:12;;;;;;;;;;;26.10;93.60;;;;;;5127598;28;19904;-55
2022/07/30 10:53:40;;;;;;;;;;;26.10;93.60;;;;;;5127225;28;19912;-56
2022/07/30 10:56:18;;;;;;;;;;;26.10;93.50;;;;;;5127265;28;19935;-55
2022/07/30 10:59:04;;;;;;;;;;;26.00;93.60;;;;;;5127369;28;19912;-55
2022/07/30 11:01:48;;;;;;;;;;;26.10;93.60;;;;;;5127260;28;19904;-56
2022/07/30 11:04:24;;;;;;;;;;;26.10;93.50;;;;;;5127148;28;19953;-55
2022/07/30 11:06:51;;;;;;;;;;;26.10;93.40;;;;;;5125832;28;20105;-58
2022/07/30 11:09:36;;;;;;;;;;;26.10;93.30;;;;;;5127039;28;20199;-59
2022/07/30 11:12:02;;;;;;;;;;;26.10;93.30;;;;;;5109063;28;20215;-61
2022/07/30 11:14:47;;;;;;;;;;;26.10;93.20;;;;;;5127256;28;20072;-58
2022/07/30 11:17:14;;;;;;;;;;;26.10;93.20;;;;;;5127189;28;19914;-55
2022/07/30 11:19:58;;;;;;;;;;;26.10;93.10;;;;;;5126544;28;20245;-55
2022/07/30 11:22:30;;;;;;;;;;;26.20;93.00;;;;;;5127322;28;20210;-56
2022/07/30 11:24:56;;;;;;;;;;;26.30;92.90;;;;;;5126811;28;19911;-55
2022/07/30 11:27:34;;;;;;;;;;;26.40;92.60;;;;;;5126477;28;19908;-55
2022/07/30 11:30:01;;;;;;;;;;;26.40;92.50;;;;;;5106409;28;19912;-58
2022/07/30 11:32:29;;;;;;;;;;;26.40;92.40;;;;;;5106447;28;19975;-53
2022/07/30 11:35:14;;;;;;;;;;;26.30;92.60;;;;;;5105805;28;19983;-52
2022/07/30 11:38:18;;;;;;;;;;;26.40;92.60;;;;;;5105043;28;19984;-53
2022/07/30 11:40:47;;;;;;;;;;;26.40;92.50;;;;;;5038522;28;19908;-53
2022/07/30 11:43:27;;;;;;;;;;;26.60;92.40;;;;;;5106025;28;19915;-53
2022/07/30 11:46:16;;;;;;;;;;;26.70;92.30;;;;;;5122769;28;20162;-58
2022/07/30 11:48:54;;;;;;;;;;;26.90;92.00;;;;;;5126353;28;19984;-57
2022/07/30 11:51:20;;;;;;;;;;;27.10;91.70;;;;;;5125787;28;19908;-53
2022/07/30 11:54:05;;;;;;;;;;;27.20;91.60;;;;;;5125766;28;19918;-53
2022/07/30 11:56:32;;;;;;;;;;;27.20;91.80;;;;;;5125902;28;19945;-55
2022/07/30 11:59:02;;;;;;;;;;;27.00;91.60;;;;;;5124542;28;19947;-53
2022/07/30 12:01:29;;;;;;;;;;;26.90;91.70;;;;;;5124835;28;19911;-54
2022/07/30 12:03:56;;;;;;;;;;;26.90;91.80;;;;;;5125430;28;19982;-60
2022/07/30 12:06:22;;;;;;;;;;;26.90;91.80;;;;;;5125613;28;19911;-54
2022/07/30 12:08:50;;;;;;;;;;;26.90;91.90;;;;;;5125802;28;19916;-58
2022/07/30 12:11:17;;;;;;;;;;;26.90;91.90;;;;;;5125962;28;19903;-53
2022/07/30 12:13:43;;;;;;;;;;;26.90;91.90;;;;;;5125358;28;19912;-55
2022/07/30 12:16:10;;;;;;;;;;;26.90;91.90;;;;;;5107605;28;19903;-54
2022/07/30 12:18:37;;;;;;;;;;;26.90;92.00;;;;;;5107568;28;19931;-56
2022/07/30 12:21:08;;;;;;;;;;;26.90;91.90;;;;;;5125558;28;19908;-56
2022/07/30 12:23:34;;;;;;;;;;;27.00;91.90;;;;;;5125998;28;19907;-61
2022/07/30 12:26:01;;;;;;;;;;;27.10;92.00;;;;;;5125508;28;19915;-54
2022/07/30 12:28:28;;;;;;;;;;;27.10;92.00;;;;;;5125795;28;19970;-54
2022/07/30 12:30:55;;;;;;;;;;;27.10;92.00;;;;;;5125648;28;20232;-54
2022/07/30 12:33:22;;;;;;;;;;;27.10;92.10;;;;;;5125949;28;20198;-57
2022/07/30 12:35:49;;;;;;;;;;;27.20;92.10;;;;;;5125465;28;19979;-58
2022/07/30 12:38:16;;;;;;;;;;;27.20;92.00;;;;;;5126024;28;19910;-56
2022/07/30 12:40:52;;;;;;;;;;;27.30;92.00;;;;;;5125349;28;19912;-53
2022/07/30 12:43:38;;;;;;;;;;;27.30;91.90;;;;;;5125716;28;19912;-51
2022/07/30 12:46:04;;;;;;;;;;;27.40;91.90;;;;;;5125328;28;20106;-55
2022/07/30 12:48:30;;;;;;;;;;;27.40;91.70;;;;;;5125410;28;19911;-54
2022/07/30 12:51:03;;;;;;;;;;;27.40;91.70;;;;;;5125283;28;19911;-53
2022/07/30 12:53:30;;;;;;;;;;;27.40;91.60;;;;;;5125301;28;19910;-57
2022/07/30 12:56:09;;;;;;;;;;;27.40;91.50;;;;;;5124501;28;19920;-57
2022/07/30 12:58:38;;;;;;;;;;;27.50;91.40;;;;;;5125484;28;19904;-55
2022/07/30 13:01:04;;;;;;;;;;;27.50;91.50;;;;;;5124517;28;20104;-52
2022/07/30 13:03:39;;;;;;;;;;;27.60;91.40;;;;;;5124768;28;19908;-55
2022/07/30 13:06:13;;;;;;;;;;;27.60;91.40;;;;;;5124910;28;19908;-55
2022/07/30 13:08:49;;;;;;;;;;;27.60;91.40;;;;;;5124562;28;19920;-61
2022/07/30 13:11:16;;;;;;;;;;;27.60;91.40;;;;;;5124616;28;19946;-54
2022/07/30 13:13:42;;;;;;;;;;;27.70;91.40;;;;;;5124553;28;19939;-55
2022/07/30 13:16:08;;;;;;;;;;;27.70;91.30;;;;;;5124789;28;19904;-56
2022/07/30 13:18:35;;;;;;;;;;;27.70;91.20;;;;;;5125099;28;19915;-52
2022/07/30 13:21:03;;;;;;;;;;;27.70;91.20;;;;;;5124286;28;20108;-55
2022/07/30 13:23:29;;;;;;;;;;;27.70;91.20;;;;;;5125373;28;19978;-54
2022/07/30 13:25:55;;;;;;;;;;;27.70;91.20;;;;;;5106221;28;19912;-54
2022/07/30 13:28:22;;;;;;;;;;;27.80;91.20;;;;;;5125011;28;19931;-55
2022/07/30 13:30:48;;;;;;;;;;;27.80;91.20;;;;;;5124848;28;20210;-56
2022/07/30 13:33:14;;;;;;;;;;;27.80;91.10;;;;;;5125094;28;19908;-55
2022/07/30 13:35:41;;;;;;;;;;;27.80;91.10;;;;;;5124106;28;19982;-54
2022/07/30 13:38:07;;;;;;;;;;;27.80;91.10;;;;;;5124333;28;20200;-62
2022/07/30 13:40:33;;;;;;;;;;;27.80;91.10;;;;;;5124490;28;19935;-60
2022/07/30 13:42:59;;;;;;;;;;;27.80;91.20;;;;;;5124365;28;19908;-56
2022/07/30 13:45:26;;;;;;;;;;;27.90;91.20;;;;;;5124594;28;19919;-55
2022/07/30 13:47:52;;;;;;;;;;;27.90;91.10;;;;;;5124219;28;19908;-56
2022/07/30 13:50:18;;;;;;;;;;;27.90;91.10;;;;;;5124093;28;19922;-57
2022/07/30 13:52:45;;;;;;;;;;;28.00;90.80;;;;;;5124533;28;19968;-54
2022/07/30 13:55:11;;;;;;;;;;;28.00;90.80;;;;;;5124040;28;19956;-56
2022/07/30 13:57:38;;;;;;;;;;;28.00;91.00;;;;;;5123205;28;19939;-55
2022/07/30 14:00:06;;;;;;;;;;;28.00;90.90;;;;;;5122772;28;19935;-53
2022/07/30 14:02:33;;;;;;;;;;;28.10;91.00;;;;;;5106033;28;19980;-59
2022/07/30 14:04:59;;;;;;;;;;;28.10;90.70;;;;;;5123591;28;19956;-53
2022/07/30 14:07:25;;;;;;;;;;;28.10;90.30;;;;;;5124701;28;20180;-56
2022/07/30 14:09:51;;;;;;;;;;;28.10;90.10;;;;;;5128102;28;19912;-55
2022/07/30 14:12:17;;;;;;;;;;;28.20;90.40;;;;;;5128402;28;19915;-56
2022/07/30 14:14:43;;;;;;;;;;;28.20;90.00;;;;;;5127929;28;19908;-55
2022/07/30 14:17:10;;;;;;;;;;;28.20;90.50;;;;;;5127319;28;19912;-57
2022/07/30 14:19:36;;;;;;;;;;;28.20;90.10;;;;;;5116358;28;19931;-54